sensor_id;sensor_type;location;lat;lon;timestamp;temperature;humidity
16879;DHT22;8556;52.218;9.884;2022-08-21T00:00:13;17.20;99.90
16879;DHT22;8556;52.218;9.884;2022-08-21T00:02:46;17.10;99.90
16879;DHT22;8556;52.218;9.884;2022-08-21T00:05:13;17.00;99.90
16879;DHT22;8556;52.218;9.884;2022-08-21T00:07:40;16.90;99.90
16879;DHT22;8556;52.218;9.884;2022-08-21T00:10:08;16.70;99.90
16879;DHT22;8556;52.218;9.884;2022-08-21T00:12:35;16.60;99.90
16879;DHT22;8556;52.218;9.884;2022-08-21T00:15:06;16.60;99.90
16879;DHT22;8556;52.218;9.884;2022-08-21T00:17:33;16.60;99.90
16879;DHT22;8556;52.218;9.884;2022-08-21T00:20:00;16.70;99.90
16879;DHT22;8556;52.218;9.884;2022-08-21T00:22:27;16.50;99.90
16879;DHT22;8556;52.218;9.884;2022-08-21T00:24:54;16.50;99.90
16879;DHT22;8556;52.218;9.884;2022-08-21T00:27:21;16.70;99.90
16879;DHT22;8556;52.218;9.884;2022-08-21T00:29:48;16.60;99.90
16879;DHT22;8556;52.218;9.884;2022-08-21T00:32:21;16.50;99.90
16879;DHT22;8556;52.218;9.884;2022-08-21T00:34:48;16.50;99.90
16879;DHT22;8556;52.218;9.884;2022-08-21T00:37:15;16.20;99.90
16879;DHT22;8556;52.218;9.884;2022-08-21T00:39:41;16.30;99.90
16879;DHT22;8556;52.218;9.884;2022-08-21T00:42:09;16.30;99.90
16879;DHT22;8556;52.218;9.884;2022-08-21T00:44:36;16.30;99.90
16879;DHT22;8556;52.218;9.884;2022-08-21T00:47:03;16.30;99.90
16879;DHT22;8556;52.218;9.884;2022-08-21T00:49:31;16.20;99.90
16879;DHT22;8556;52.218;9.884;2022-08-21T00:52:00;16.30;99.90
16879;DHT22;8556;52.218;9.884;2022-08-21T00:54:29;16.20;99.90
16879;DHT22;8556;52.218;9.884;2022-08-21T00:57:00;16.20;99.90
16879;DHT22;8556;52.218;9.884;2022-08-21T00:59:32;16.10;99.90
16879;DHT22;8556;52.218;9.884;2022-08-21T01:01:59;16.00;99.90
16879;DHT22;8556;52.218;9.884;2022-08-21T01:04:26;16.10;99.90
16879;DHT22;8556;52.218;9.884;2022-08-21T01:06:55;16.00;99.90
16879;DHT22;8556;52.218;9.884;2022-08-21T01:09:22;15.90;99.90
16879;DHT22;8556;52.218;9.884;2022-08-21T01:11:49;15.90;99.90
16879;DHT22;8556;52.218;9.884;2022-08-21T01:14:16;15.80;99.90
16879;DHT22;8556;52.218;9.884;2022-08-21T01:16:47;15.80;99.90
16879;DHT22;8556;52.218;9.884;2022-08-21T01:19:17;15.90;99.90
16879;DHT22;8556;52.218;9.884;2022-08-21T01:21:46;15.90;99.90
16879;DHT22;8556;52.218;9.884;2022-08-21T01:24:13;15.90;99.90
16879;DHT22;8556;52.218;9.884;2022-08-21T01:26:41;15.70;99.90
16879;DHT22;8556;52.218;9.884;2022-08-21T01:29:13;15.80;99.90
16879;DHT22;8556;52.218;9.884;2022-08-21T01:31:41;15.90;99.90
16879;DHT22;8556;52.218;9.884;2022-08-21T01:34:09;15.90;99.90
16879;DHT22;8556;52.218;9.884;2022-08-21T01:36:36;15.90;99.90
16879;DHT22;8556;52.218;9.884;2022-08-21T01:39:05;15.90;99.90
16879;DHT22;8556;52.218;9.884;2022-08-21T01:41:32;15.80;99.90
16879;DHT22;8556;52.218;9.884;2022-08-21T01:43:59;15.70;99.90
16879;DHT22;8556;52.218;9.884;2022-08-21T01:46:26;15.70;99.90
16879;DHT22;8556;52.218;9.884;2022-08-21T01:48:53;15.70;99.90
16879;DHT22;8556;52.218;9.884;2022-08-21T01:51:19;15.70;99.90
16879;DHT22;8556;52.218;9.884;2022-08-21T01:53:46;15.80;99.90
16879;DHT22;8556;52.218;9.884;2022-08-21T01:56:16;15.60;99.90
16879;DHT22;8556;52.218;9.884;2022-08-21T01:58:46;15.60;99.90
16879;DHT22;8556;52.218;9.884;2022-08-21T02:01:13;15.50;99.90
16879;DHT22;8556;52.218;9.884;2022-08-21T02:03:41;15.40;99.90
16879;DHT22;8556;52.218;9.884;2022-08-21T02:06:13;15.30;99.90
16879;DHT22;8556;52.218;9.884;2022-08-21T02:08:43;15.30;99.90
16879;DHT22;8556;52.218;9.884;2022-08-21T02:11:10;15.30;99.90
16879;DHT22;8556;52.218;9.884;2022-08-21T02:13:38;15.30;99.90
16879;DHT22;8556;52.218;9.884;2022-08-21T02:16:10;15.20;99.90
16879;DHT22;8556;52.218;9.884;2022-08-21T02:18:42;15.20;99.90
16879;DHT22;8556;52.218;9.884;2022-08-21T02:21:09;15.30;99.90
16879;DHT22;8556;52.218;9.884;2022-08-21T02:23:36;15.20;99.90
16879;DHT22;8556;52.218;9.884;2022-08-21T02:26:06;15.30;99.90
16879;DHT22;8556;52.218;9.884;2022-08-21T02:28:34;15.30;99.90
16879;DHT22;8556;52.218;9.884;2022-08-21T02:31:03;15.10;99.90
16879;DHT22;8556;52.218;9.884;2022-08-21T02:33:31;15.10;99.90
16879;DHT22;8556;52.218;9.884;2022-08-21T02:35:59;15.00;99.90
16879;DHT22;8556;52.218;9.884;2022-08-21T02:38:28;15.00;99.90
16879;DHT22;8556;52.218;9.884;2022-08-21T02:40:56;14.90;99.90
16879;DHT22;8556;52.218;9.884;2022-08-21T02:43:25;15.00;99.90
16879;DHT22;8556;52.218;9.884;2022-08-21T02:45:53;15.00;99.90
16879;DHT22;8556;52.218;9.884;2022-08-21T02:48:24;15.00;99.90
16879;DHT22;8556;52.218;9.884;2022-08-21T02:50:53;14.90;99.90
16879;DHT22;8556;52.218;9.884;2022-08-21T02:53:20;14.90;99.90
16879;DHT22;8556;52.218;9.884;2022-08-21T02:55:49;14.90;99.90
16879;DHT22;8556;52.218;9.884;2022-08-21T02:58:17;14.70;99.90
16879;DHT22;8556;52.218;9.884;2022-08-21T03:00:45;14.50;99.90
16879;DHT22;8556;52.218;9.884;2022-08-21T03:03:12;14.50;99.90
16879;DHT22;8556;52.218;9.884;2022-08-21T03:05:42;14.80;99.90
16879;DHT22;8556;52.218;9.884;2022-08-21T03:08:11;14.80;99.90
16879;DHT22;8556;52.218;9.884;2022-08-21T03:10:41;14.60;99.90
16879;DHT22;8556;52.218;9.884;2022-08-21T03:13:09;14.60;99.90
16879;DHT22;8556;52.218;9.884;2022-08-21T03:15:36;14.70;99.90
16879;DHT22;8556;52.218;9.884;2022-08-21T03:18:04;14.70;99.90
16879;DHT22;8556;52.218;9.884;2022-08-21T03:20:31;14.70;99.90
16879;DHT22;8556;52.218;9.884;2022-08-21T03:23:01;14.70;99.90
16879;DHT22;8556;52.218;9.884;2022-08-21T03:25:29;14.70;99.90
16879;DHT22;8556;52.218;9.884;2022-08-21T03:27:57;14.70;99.90
16879;DHT22;8556;52.218;9.884;2022-08-21T03:30:24;14.60;99.90
16879;DHT22;8556;52.218;9.884;2022-08-21T03:32:51;14.70;99.90
16879;DHT22;8556;52.218;9.884;2022-08-21T03:35:19;14.80;99.90
16879;DHT22;8556;52.218;9.884;2022-08-21T03:37:46;14.70;99.90
16879;DHT22;8556;52.218;9.884;2022-08-21T03:40:17;14.60;99.90
16879;DHT22;8556;52.218;9.884;2022-08-21T03:42:46;14.50;99.90
16879;DHT22;8556;52.218;9.884;2022-08-21T03:45:14;14.20;99.90
16879;DHT22;8556;52.218;9.884;2022-08-21T03:47:51;14.10;99.90
16879;DHT22;8556;52.218;9.884;2022-08-21T03:50:18;14.20;99.90
16879;DHT22;8556;52.218;9.884;2022-08-21T03:52:45;14.30;99.90
16879;DHT22;8556;52.218;9.884;2022-08-21T03:55:12;14.50;99.90
16879;DHT22;8556;52.218;9.884;2022-08-21T03:57:40;14.30;99.90
16879;DHT22;8556;52.218;9.884;2022-08-21T04:00:08;14.20;99.90
16879;DHT22;8556;52.218;9.884;2022-08-21T04:02:37;14.60;99.90
16879;DHT22;8556;52.218;9.884;2022-08-21T04:05:05;14.70;99.90
16879;DHT22;8556;52.218;9.884;2022-08-21T04:07:32;14.80;99.90
16879;DHT22;8556;52.218;9.884;2022-08-21T04:09:59;14.80;99.90
16879;DHT22;8556;52.218;9.884;2022-08-21T04:12:25;14.70;99.90
16879;DHT22;8556;52.218;9.884;2022-08-21T04:14:54;14.60;99.90
16879;DHT22;8556;52.218;9.884;2022-08-21T04:17:20;14.50;99.90
16879;DHT22;8556;52.218;9.884;2022-08-21T04:19:47;14.60;99.90
16879;DHT22;8556;52.218;9.884;2022-08-21T04:22:15;14.80;99.90
16879;DHT22;8556;52.218;9.884;2022-08-21T04:24:42;14.80;99.90
16879;DHT22;8556;52.218;9.884;2022-08-21T04:27:09;14.70;99.90
16879;DHT22;8556;52.218;9.884;2022-08-21T04:29:36;14.60;99.90
16879;DHT22;8556;52.218;9.884;2022-08-21T04:32:05;14.60;99.90
16879;DHT22;8556;52.218;9.884;2022-08-21T04:34:32;14.50;99.90
16879;DHT22;8556;52.218;9.884;2022-08-21T04:36:59;14.40;99.90
16879;DHT22;8556;52.218;9.884;2022-08-21T04:39:26;14.60;99.90
16879;DHT22;8556;52.218;9.884;2022-08-21T04:41:53;14.80;99.90
16879;DHT22;8556;52.218;9.884;2022-08-21T04:44:20;14.80;99.90
16879;DHT22;8556;52.218;9.884;2022-08-21T04:46:47;14.80;99.90
16879;DHT22;8556;52.218;9.884;2022-08-21T04:49:15;14.80;99.90
16879;DHT22;8556;52.218;9.884;2022-08-21T04:51:42;14.80;99.90
16879;DHT22;8556;52.218;9.884;2022-08-21T04:54:10;15.00;99.90
16879;DHT22;8556;52.218;9.884;2022-08-21T04:56:42;15.20;99.90
16879;DHT22;8556;52.218;9.884;2022-08-21T04:59:13;15.10;99.90
16879;DHT22;8556;52.218;9.884;2022-08-21T05:01:42;15.10;99.90
16879;DHT22;8556;52.218;9.884;2022-08-21T05:04:13;15.10;99.90
16879;DHT22;8556;52.218;9.884;2022-08-21T05:06:43;15.10;99.90
16879;DHT22;8556;52.218;9.884;2022-08-21T05:09:13;15.10;99.90
16879;DHT22;8556;52.218;9.884;2022-08-21T05:11:41;15.20;99.90
16879;DHT22;8556;52.218;9.884;2022-08-21T05:14:08;15.20;99.90
16879;DHT22;8556;52.218;9.884;2022-08-21T05:16:35;15.40;99.90
16879;DHT22;8556;52.218;9.884;2022-08-21T05:19:02;15.30;99.90
16879;DHT22;8556;52.218;9.884;2022-08-21T05:21:29;15.30;99.90
16879;DHT22;8556;52.218;9.884;2022-08-21T05:23:57;15.30;99.90
16879;DHT22;8556;52.218;9.884;2022-08-21T05:26:24;15.40;99.90
16879;DHT22;8556;52.218;9.884;2022-08-21T05:28:51;15.50;99.90
16879;DHT22;8556;52.218;9.884;2022-08-21T05:31:18;15.50;99.90
16879;DHT22;8556;52.218;9.884;2022-08-21T05:33:45;15.70;99.90
16879;DHT22;8556;52.218;9.884;2022-08-21T05:36:12;15.80;99.90
16879;DHT22;8556;52.218;9.884;2022-08-21T05:38:39;15.90;99.90
16879;DHT22;8556;52.218;9.884;2022-08-21T05:41:07;15.90;99.90
16879;DHT22;8556;52.218;9.884;2022-08-21T05:43:34;16.00;99.90
16879;DHT22;8556;52.218;9.884;2022-08-21T05:46:02;15.80;99.90
16879;DHT22;8556;52.218;9.884;2022-08-21T05:48:30;15.80;99.90
16879;DHT22;8556;52.218;9.884;2022-08-21T05:50:57;16.00;99.90
16879;DHT22;8556;52.218;9.884;2022-08-21T05:53:25;15.80;99.90
16879;DHT22;8556;52.218;9.884;2022-08-21T05:55:52;15.90;99.90
16879;DHT22;8556;52.218;9.884;2022-08-21T05:58:21;16.30;99.90
16879;DHT22;8556;52.218;9.884;2022-08-21T06:00:50;16.50;99.90
16879;DHT22;8556;52.218;9.884;2022-08-21T06:03:20;16.70;99.90
16879;DHT22;8556;52.218;9.884;2022-08-21T06:05:47;17.00;99.90
16879;DHT22;8556;52.218;9.884;2022-08-21T06:08:15;16.90;99.90
16879;DHT22;8556;52.218;9.884;2022-08-21T06:10:42;17.00;99.90
16879;DHT22;8556;52.218;9.884;2022-08-21T06:13:09;17.20;99.90
16879;DHT22;8556;52.218;9.884;2022-08-21T06:15:38;17.40;99.90
16879;DHT22;8556;52.218;9.884;2022-08-21T06:18:05;17.40;99.90
16879;DHT22;8556;52.218;9.884;2022-08-21T06:20:32;17.50;99.90
16879;DHT22;8556;52.218;9.884;2022-08-21T06:23:00;17.60;99.90
16879;DHT22;8556;52.218;9.884;2022-08-21T06:25:28;17.70;99.90
16879;DHT22;8556;52.218;9.884;2022-08-21T06:28:00;17.80;99.90
16879;DHT22;8556;52.218;9.884;2022-08-21T06:30:27;17.80;99.90
16879;DHT22;8556;52.218;9.884;2022-08-21T06:32:55;17.90;99.90
16879;DHT22;8556;52.218;9.884;2022-08-21T06:35:23;17.90;99.90
16879;DHT22;8556;52.218;9.884;2022-08-21T06:37:49;17.90;99.90
16879;DHT22;8556;52.218;9.884;2022-08-21T06:40:16;17.80;99.90
16879;DHT22;8556;52.218;9.884;2022-08-21T06:42:43;17.80;99.90
16879;DHT22;8556;52.218;9.884;2022-08-21T06:45:10;17.80;99.90
16879;DHT22;8556;52.218;9.884;2022-08-21T06:47:37;17.80;99.90
16879;DHT22;8556;52.218;9.884;2022-08-21T06:50:06;17.80;99.90
16879;DHT22;8556;52.218;9.884;2022-08-21T06:52:34;17.80;99.90
16879;DHT22;8556;52.218;9.884;2022-08-21T06:55:00;17.90;99.90
16879;DHT22;8556;52.218;9.884;2022-08-21T06:57:27;17.90;99.90
16879;DHT22;8556;52.218;9.884;2022-08-21T06:59:54;17.90;99.90
16879;DHT22;8556;52.218;9.884;2022-08-21T07:02:21;17.90;99.90
16879;DHT22;8556;52.218;9.884;2022-08-21T07:04:48;18.00;99.90
16879;DHT22;8556;52.218;9.884;2022-08-21T07:07:16;18.10;99.90
16879;DHT22;8556;52.218;9.884;2022-08-21T07:09:43;18.40;99.90
16879;DHT22;8556;52.218;9.884;2022-08-21T07:12:10;18.40;99.90
16879;DHT22;8556;52.218;9.884;2022-08-21T07:14:37;18.80;99.90
16879;DHT22;8556;52.218;9.884;2022-08-21T07:17:04;19.00;99.90
16879;DHT22;8556;52.218;9.884;2022-08-21T07:19:32;18.80;99.90
16879;DHT22;8556;52.218;9.884;2022-08-21T07:22:01;18.80;99.90
16879;DHT22;8556;52.218;9.884;2022-08-21T07:24:29;18.70;99.90
16879;DHT22;8556;52.218;9.884;2022-08-21T07:26:56;18.80;99.90
16879;DHT22;8556;52.218;9.884;2022-08-21T07:29:23;18.90;99.90
16879;DHT22;8556;52.218;9.884;2022-08-21T07:31:50;19.10;99.90
16879;DHT22;8556;52.218;9.884;2022-08-21T07:34:17;19.10;99.90
16879;DHT22;8556;52.218;9.884;2022-08-21T07:36:44;19.10;99.90
16879;DHT22;8556;52.218;9.884;2022-08-21T07:39:12;19.00;99.90
16879;DHT22;8556;52.218;9.884;2022-08-21T07:41:40;19.00;99.90
16879;DHT22;8556;52.218;9.884;2022-08-21T07:44:08;19.10;99.90
16879;DHT22;8556;52.218;9.884;2022-08-21T07:46:35;19.30;99.90
16879;DHT22;8556;52.218;9.884;2022-08-21T07:49:01;19.40;99.90
16879;DHT22;8556;52.218;9.884;2022-08-21T07:51:29;19.40;99.90
16879;DHT22;8556;52.218;9.884;2022-08-21T07:53:57;19.50;99.90
16879;DHT22;8556;52.218;9.884;2022-08-21T07:56:25;19.60;99.90
16879;DHT22;8556;52.218;9.884;2022-08-21T07:58:54;19.80;99.90
16879;DHT22;8556;52.218;9.884;2022-08-21T08:01:23;19.70;99.90
16879;DHT22;8556;52.218;9.884;2022-08-21T08:03:50;19.80;99.90
16879;DHT22;8556;52.218;9.884;2022-08-21T08:06:17;19.70;99.90
16879;DHT22;8556;52.218;9.884;2022-08-21T08:08:46;19.80;99.90
16879;DHT22;8556;52.218;9.884;2022-08-21T08:11:13;19.80;99.90
16879;DHT22;8556;52.218;9.884;2022-08-21T08:13:45;19.70;99.90
16879;DHT22;8556;52.218;9.884;2022-08-21T08:16:14;19.80;99.90
16879;DHT22;8556;52.218;9.884;2022-08-21T08:18:41;19.80;99.90
16879;DHT22;8556;52.218;9.884;2022-08-21T08:21:10;19.80;99.90
16879;DHT22;8556;52.218;9.884;2022-08-21T08:23:38;20.00;99.90
16879;DHT22;8556;52.218;9.884;2022-08-21T08:26:05;20.10;99.90
16879;DHT22;8556;52.218;9.884;2022-08-21T08:28:33;20.20;99.90
16879;DHT22;8556;52.218;9.884;2022-08-21T08:31:00;20.30;99.90
16879;DHT22;8556;52.218;9.884;2022-08-21T08:33:30;20.40;99.90
16879;DHT22;8556;52.218;9.884;2022-08-21T08:35:57;20.50;99.90
16879;DHT22;8556;52.218;9.884;2022-08-21T08:38:24;20.50;99.90
16879;DHT22;8556;52.218;9.884;2022-08-21T08:40:58;20.60;99.90
16879;DHT22;8556;52.218;9.884;2022-08-21T08:43:33;20.60;99.90
16879;DHT22;8556;52.218;9.884;2022-08-21T08:46:16;20.70;99.90
16879;DHT22;8556;52.218;9.884;2022-08-21T08:48:51;21.00;99.90
16879;DHT22;8556;52.218;9.884;2022-08-21T08:51:23;21.00;99.90
16879;DHT22;8556;52.218;9.884;2022-08-21T08:53:55;21.00;99.90
16879;DHT22;8556;52.218;9.884;2022-08-21T08:56:28;21.10;99.90
16879;DHT22;8556;52.218;9.884;2022-08-21T08:59:14;21.20;99.90
16879;DHT22;8556;52.218;9.884;2022-08-21T09:01:42;21.20;99.90
16879;DHT22;8556;52.218;9.884;2022-08-21T09:04:11;21.30;99.90
16879;DHT22;8556;52.218;9.884;2022-08-21T09:06:50;21.60;99.90
16879;DHT22;8556;52.218;9.884;2022-08-21T09:09:35;21.70;99.90
16879;DHT22;8556;52.218;9.884;2022-08-21T09:12:09;22.20;99.90
16879;DHT22;8556;52.218;9.884;2022-08-21T09:14:50;22.70;99.90
16879;DHT22;8556;52.218;9.884;2022-08-21T09:17:32;23.20;99.90
16879;DHT22;8556;52.218;9.884;2022-08-21T09:20:26;23.40;99.90
16879;DHT22;8556;52.218;9.884;2022-08-21T09:23:04;24.00;97.30
16879;DHT22;8556;52.218;9.884;2022-08-21T09:25:43;24.30;74.60
16879;DHT22;8556;52.218;9.884;2022-08-21T09:28:12;24.20;56.80
16879;DHT22;8556;52.218;9.884;2022-08-21T09:30:41;24.60;79.70
16879;DHT22;8556;52.218;9.884;2022-08-21T09:33:12;25.10;74.00
16879;DHT22;8556;52.218;9.884;2022-08-21T09:35:51;25.00;44.70
16879;DHT22;8556;52.218;9.884;2022-08-21T09:38:27;25.10;36.60
16879;DHT22;8556;52.218;9.884;2022-08-21T09:41:01;25.60;32.90
16879;DHT22;8556;52.218;9.884;2022-08-21T09:43:29;25.20;29.50
16879;DHT22;8556;52.218;9.884;2022-08-21T09:46:06;25.90;31.00
16879;DHT22;8556;52.218;9.884;2022-08-21T09:48:44;25.90;21.90
16879;DHT22;8556;52.218;9.884;2022-08-21T09:51:17;26.10;21.80
16879;DHT22;8556;52.218;9.884;2022-08-21T09:53:48;26.10;24.10
16879;DHT22;8556;52.218;9.884;2022-08-21T09:56:21;26.10;23.80
16879;DHT22;8556;52.218;9.884;2022-08-21T09:59:16;26.30;17.80
16879;DHT22;8556;52.218;9.884;2022-08-21T10:01:44;26.60;20.40
16879;DHT22;8556;52.218;9.884;2022-08-21T10:04:12;27.10;16.20
16879;DHT22;8556;52.218;9.884;2022-08-21T10:06:40;26.70;13.10
16879;DHT22;8556;52.218;9.884;2022-08-21T10:09:09;26.90;12.50
16879;DHT22;8556;52.218;9.884;2022-08-21T10:11:37;26.60;8.80
16879;DHT22;8556;52.218;9.884;2022-08-21T10:14:14;25.80;10.70
16879;DHT22;8556;52.218;9.884;2022-08-21T10:16:50;26.20;10.40
16879;DHT22;8556;52.218;9.884;2022-08-21T10:19:29;26.90;12.20
16879;DHT22;8556;52.218;9.884;2022-08-21T10:22:05;26.70;4.70
16879;DHT22;8556;52.218;9.884;2022-08-21T10:24:38;26.10;4.00
16879;DHT22;8556;52.218;9.884;2022-08-21T10:27:14;25.90;2.20
16879;DHT22;8556;52.218;9.884;2022-08-21T10:29:49;26.50;3.60
16879;DHT22;8556;52.218;9.884;2022-08-21T10:32:33;27.40;4.00
16879;DHT22;8556;52.218;9.884;2022-08-21T10:35:10;27.80;1.00
16879;DHT22;8556;52.218;9.884;2022-08-21T10:37:56;26.60;1.00
16879;DHT22;8556;52.218;9.884;2022-08-21T10:40:29;26.10;5.00
16879;DHT22;8556;52.218;9.884;2022-08-21T10:43:05;26.30;7.00
16879;DHT22;8556;52.218;9.884;2022-08-21T10:45:44;26.40;3.00
16879;DHT22;8556;52.218;9.884;2022-08-21T10:48:22;25.90;1.00
16879;DHT22;8556;52.218;9.884;2022-08-21T10:50:55;25.80;3.70
16879;DHT22;8556;52.218;9.884;2022-08-21T10:53:49;25.50;4.90
16879;DHT22;8556;52.218;9.884;2022-08-21T10:56:19;25.80;2.60
16879;DHT22;8556;52.218;9.884;2022-08-21T10:59:02;26.80;1.50
16879;DHT22;8556;52.218;9.884;2022-08-21T11:01:37;26.90;1.00
16879;DHT22;8556;52.218;9.884;2022-08-21T11:04:12;26.90;1.00
16879;DHT22;8556;52.218;9.884;2022-08-21T11:06:44;26.60;1.00
16879;DHT22;8556;52.218;9.884;2022-08-21T11:09:17;26.40;4.30
16879;DHT22;8556;52.218;9.884;2022-08-21T11:11:47;26.20;1.00
16879;DHT22;8556;52.218;9.884;2022-08-21T11:14:25;25.90;1.00
16879;DHT22;8556;52.218;9.884;2022-08-21T11:17:01;25.70;1.00
16879;DHT22;8556;52.218;9.884;2022-08-21T11:19:32;25.90;1.00
16879;DHT22;8556;52.218;9.884;2022-08-21T11:22:07;26.00;1.00
16879;DHT22;8556;52.218;9.884;2022-08-21T11:24:43;26.60;2.10
16879;DHT22;8556;52.218;9.884;2022-08-21T11:27:19;26.80;1.00
16879;DHT22;8556;52.218;9.884;2022-08-21T11:29:49;27.50;1.00
16879;DHT22;8556;52.218;9.884;2022-08-21T11:32:31;27.40;1.00
16879;DHT22;8556;52.218;9.884;2022-08-21T11:35:06;27.70;1.00
16879;DHT22;8556;52.218;9.884;2022-08-21T11:37:51;27.60;1.00
16879;DHT22;8556;52.218;9.884;2022-08-21T11:40:36;28.00;1.00
16879;DHT22;8556;52.218;9.884;2022-08-21T11:43:12;27.70;1.00
16879;DHT22;8556;52.218;9.884;2022-08-21T11:45:47;27.90;1.00
16879;DHT22;8556;52.218;9.884;2022-08-21T11:48:25;28.10;1.00
16879;DHT22;8556;52.218;9.884;2022-08-21T11:50:55;28.00;1.00
16879;DHT22;8556;52.218;9.884;2022-08-21T11:53:30;27.20;1.00
16879;DHT22;8556;52.218;9.884;2022-08-21T11:56:03;27.20;1.00
16879;DHT22;8556;52.218;9.884;2022-08-21T11:58:37;27.70;1.00
16879;DHT22;8556;52.218;9.884;2022-08-21T12:01:09;27.20;1.00
16879;DHT22;8556;52.218;9.884;2022-08-21T12:03:39;27.20;1.00
16879;DHT22;8556;52.218;9.884;2022-08-21T12:06:10;27.30;1.00
16879;DHT22;8556;52.218;9.884;2022-08-21T12:08:39;27.50;1.00
16879;DHT22;8556;52.218;9.884;2022-08-21T12:11:20;27.20;1.00
16879;DHT22;8556;52.218;9.884;2022-08-21T12:13:54;26.90;1.00
16879;DHT22;8556;52.218;9.884;2022-08-21T12:16:29;26.70;1.00
16879;DHT22;8556;52.218;9.884;2022-08-21T12:19:04;26.80;1.00
16879;DHT22;8556;52.218;9.884;2022-08-21T12:21:31;27.30;1.00
16879;DHT22;8556;52.218;9.884;2022-08-21T12:24:05;27.60;1.00
16879;DHT22;8556;52.218;9.884;2022-08-21T12:26:50;27.50;1.00
16879;DHT22;8556;52.218;9.884;2022-08-21T12:29:23;26.70;1.00
16879;DHT22;8556;52.218;9.884;2022-08-21T12:31:59;25.80;1.00
16879;DHT22;8556;52.218;9.884;2022-08-21T12:34:36;26.00;1.00
16879;DHT22;8556;52.218;9.884;2022-08-21T12:37:05;26.30;1.00
16879;DHT22;8556;52.218;9.884;2022-08-21T12:39:36;26.40;1.00
16879;DHT22;8556;52.218;9.884;2022-08-21T12:42:11;25.90;1.00
16879;DHT22;8556;52.218;9.884;2022-08-21T12:44:45;26.10;1.00
16879;DHT22;8556;52.218;9.884;2022-08-21T12:47:15;25.70;1.00
16879;DHT22;8556;52.218;9.884;2022-08-21T12:49:53;25.80;1.00
16879;DHT22;8556;52.218;9.884;2022-08-21T12:52:23;26.10;1.00
16879;DHT22;8556;52.218;9.884;2022-08-21T12:54:50;26.60;1.00
16879;DHT22;8556;52.218;9.884;2022-08-21T12:57:20;26.80;1.00
16879;DHT22;8556;52.218;9.884;2022-08-21T12:59:52;26.80;1.00
16879;DHT22;8556;52.218;9.884;2022-08-21T13:02:23;26.40;1.00
16879;DHT22;8556;52.218;9.884;2022-08-21T13:04:51;25.80;1.00
16879;DHT22;8556;52.218;9.884;2022-08-21T13:07:24;25.80;1.00
16879;DHT22;8556;52.218;9.884;2022-08-21T13:09:53;26.20;1.00
16879;DHT22;8556;52.218;9.884;2022-08-21T13:12:22;25.70;1.00
16879;DHT22;8556;52.218;9.884;2022-08-21T13:14:52;25.60;1.00
16879;DHT22;8556;52.218;9.884;2022-08-21T13:17:24;25.90;1.00
16879;DHT22;8556;52.218;9.884;2022-08-21T13:19:56;26.00;1.00
16879;DHT22;8556;52.218;9.884;2022-08-21T13:22:25;25.90;1.00
16879;DHT22;8556;52.218;9.884;2022-08-21T13:24:52;26.10;1.00
16879;DHT22;8556;52.218;9.884;2022-08-21T13:27:24;26.40;1.00
16879;DHT22;8556;52.218;9.884;2022-08-21T13:30:03;26.80;1.00
16879;DHT22;8556;52.218;9.884;2022-08-21T13:32:32;27.50;1.00
16879;DHT22;8556;52.218;9.884;2022-08-21T13:35:12;26.70;1.00
16879;DHT22;8556;52.218;9.884;2022-08-21T13:37:40;26.10;1.00
16879;DHT22;8556;52.218;9.884;2022-08-21T13:40:11;26.30;1.00
16879;DHT22;8556;52.218;9.884;2022-08-21T13:42:41;27.00;1.00
16879;DHT22;8556;52.218;9.884;2022-08-21T13:45:17;26.70;1.00
16879;DHT22;8556;52.218;9.884;2022-08-21T13:47:45;26.60;1.00
16879;DHT22;8556;52.218;9.884;2022-08-21T13:50:14;26.20;1.00
16879;DHT22;8556;52.218;9.884;2022-08-21T13:52:56;26.30;1.00
16879;DHT22;8556;52.218;9.884;2022-08-21T13:55:24;26.10;1.00
16879;DHT22;8556;52.218;9.884;2022-08-21T13:58:00;26.90;1.00
16879;DHT22;8556;52.218;9.884;2022-08-21T14:00:28;27.20;1.00
16879;DHT22;8556;52.218;9.884;2022-08-21T14:03:02;27.90;1.00
16879;DHT22;8556;52.218;9.884;2022-08-21T14:05:33;27.40;1.00
16879;DHT22;8556;52.218;9.884;2022-08-21T14:08:06;27.50;1.00
16879;DHT22;8556;52.218;9.884;2022-08-21T14:10:36;27.50;1.00
16879;DHT22;8556;52.218;9.884;2022-08-21T14:13:30;27.60;1.00
16879;DHT22;8556;52.218;9.884;2022-08-21T14:16:01;27.50;1.00
16879;DHT22;8556;52.218;9.884;2022-08-21T14:18:29;27.40;1.00
16879;DHT22;8556;52.218;9.884;2022-08-21T14:21:05;27.80;1.00
16879;DHT22;8556;52.218;9.884;2022-08-21T14:23:32;27.50;1.00
16879;DHT22;8556;52.218;9.884;2022-08-21T14:26:01;27.20;1.00
16879;DHT22;8556;52.218;9.884;2022-08-21T14:28:31;27.00;1.00
16879;DHT22;8556;52.218;9.884;2022-08-21T14:30:59;27.20;1.00
16879;DHT22;8556;52.218;9.884;2022-08-21T14:33:37;27.00;1.00
16879;DHT22;8556;52.218;9.884;2022-08-21T14:36:05;27.20;1.00
16879;DHT22;8556;52.218;9.884;2022-08-21T14:38:32;26.60;1.00
16879;DHT22;8556;52.218;9.884;2022-08-21T14:41:15;26.90;1.00
16879;DHT22;8556;52.218;9.884;2022-08-21T14:43:45;26.70;1.00
16879;DHT22;8556;52.218;9.884;2022-08-21T14:46:13;26.60;1.00
16879;DHT22;8556;52.218;9.884;2022-08-21T14:48:44;26.70;1.00
16879;DHT22;8556;52.218;9.884;2022-08-21T14:51:12;27.10;1.00
16879;DHT22;8556;52.218;9.884;2022-08-21T14:53:39;26.90;1.00
16879;DHT22;8556;52.218;9.884;2022-08-21T14:56:06;27.40;1.00
16879;DHT22;8556;52.218;9.884;2022-08-21T14:58:35;27.40;1.00
16879;DHT22;8556;52.218;9.884;2022-08-21T15:01:05;27.40;1.00
16879;DHT22;8556;52.218;9.884;2022-08-21T15:03:33;26.90;1.00
16879;DHT22;8556;52.218;9.884;2022-08-21T15:06:00;27.50;1.00
16879;DHT22;8556;52.218;9.884;2022-08-21T15:08:27;27.10;1.00
16879;DHT22;8556;52.218;9.884;2022-08-21T15:10:57;26.60;1.00
16879;DHT22;8556;52.218;9.884;2022-08-21T15:13:25;26.60;1.00
16879;DHT22;8556;52.218;9.884;2022-08-21T15:15:52;26.40;1.00
16879;DHT22;8556;52.218;9.884;2022-08-21T15:18:21;26.20;1.00
16879;DHT22;8556;52.218;9.884;2022-08-21T15:20:49;26.50;1.00
16879;DHT22;8556;52.218;9.884;2022-08-21T15:23:16;26.20;1.00
16879;DHT22;8556;52.218;9.884;2022-08-21T15:25:45;26.30;1.00
16879;DHT22;8556;52.218;9.884;2022-08-21T15:28:14;26.30;1.00
16879;DHT22;8556;52.218;9.884;2022-08-21T15:30:43;26.00;1.00
16879;DHT22;8556;52.218;9.884;2022-08-21T15:33:12;26.20;1.00
16879;DHT22;8556;52.218;9.884;2022-08-21T15:35:40;26.50;1.00
16879;DHT22;8556;52.218;9.884;2022-08-21T15:38:07;26.60;1.00
16879;DHT22;8556;52.218;9.884;2022-08-21T15:40:34;26.60;1.00
16879;DHT22;8556;52.218;9.884;2022-08-21T15:43:03;26.40;1.00
16879;DHT22;8556;52.218;9.884;2022-08-21T15:45:31;26.60;1.00
16879;DHT22;8556;52.218;9.884;2022-08-21T15:47:59;26.80;1.00
16879;DHT22;8556;52.218;9.884;2022-08-21T15:50:26;26.70;1.00
16879;DHT22;8556;52.218;9.884;2022-08-21T15:52:56;26.30;1.00
16879;DHT22;8556;52.218;9.884;2022-08-21T15:55:23;26.70;1.00
16879;DHT22;8556;52.218;9.884;2022-08-21T15:57:51;26.60;1.00
16879;DHT22;8556;52.218;9.884;2022-08-21T16:00:21;26.60;1.00
16879;DHT22;8556;52.218;9.884;2022-08-21T16:02:52;26.60;1.00
16879;DHT22;8556;52.218;9.884;2022-08-21T16:05:20;26.60;1.00
16879;DHT22;8556;52.218;9.884;2022-08-21T16:07:48;26.50;1.00
16879;DHT22;8556;52.218;9.884;2022-08-21T16:10:20;26.20;1.00